Time;durP1;ratioP1;P1;durP2;ratioP2;P2;SDS_P1;SDS_P2;PMS_P1;PMS_P2;Temp;Humidity;BMP_temperature;BMP_pressure;BME280_temperature;BME280_humidity;BME280_pressure;Samples;Min_cycle;Max_cycle;Signal;HPM_P1;HPM_P2
2021/03/04 00:01:35;;;;;;;58.93;38.57;;;8.40;99.90;;;;;;5088156;28;20255;-75
2021/03/04 00:04:01;;;;;;;58.27;38.50;;;8.40;99.90;;;;;;5088359;28;20210;-75
2021/03/04 00:06:27;;;;;;;57.27;38.33;;;8.40;99.90;;;;;;5088461;28;20203;-75
2021/03/04 00:08:53;;;;;;;53.10;38.23;;;8.30;99.90;;;;;;5088318;28;20665;-75
2021/03/04 00:11:20;;;;;;;56.07;38.67;;;8.20;99.90;;;;;;5087829;28;20996;-75
2021/03/04 00:13:47;;;;;;;55.23;38.20;;;8.20;99.90;;;;;;5088314;28;20227;-75
2021/03/04 00:16:13;;;;;;;56.77;36.67;;;8.20;99.90;;;;;;5088189;28;20214;-75
2021/03/04 00:18:39;;;;;;;57.77;37.83;;;8.30;99.90;;;;;;5088343;28;20217;-75
2021/03/04 00:21:05;;;;;;;52.67;37.13;;;8.20;99.90;;;;;;5087664;28;20936;-75
2021/03/04 00:23:31;;;;;;;47.40;34.27;;;8.10;99.90;;;;;;5088158;28;20630;-75
2021/03/04 00:25:58;;;;;;;54.17;34.13;;;8.10;99.90;;;;;;5087986;28;20211;-75
2021/03/04 00:28:24;;;;;;;50.23;34.33;;;8.00;99.90;;;;;;5088053;28;20214;-75
2021/03/04 00:30:51;;;;;;;53.87;33.73;;;7.90;99.90;;;;;;5088209;28;20207;-75
2021/03/04 00:33:17;;;;;;;52.37;34.83;;;7.80;99.90;;;;;;5087813;28;20241;-75
2021/03/04 00:35:43;;;;;;;53.57;32.03;;;7.80;99.90;;;;;;5088220;28;20210;-75
2021/03/04 00:38:09;;;;;;;50.27;33.40;;;7.80;99.90;;;;;;5087949;28;20198;-75
2021/03/04 00:40:35;;;;;;;47.00;32.17;;;7.80;99.90;;;;;;5089454;28;20207;-75
2021/03/04 00:43:03;;;;;;;51.80;33.17;;;7.80;99.90;;;;;;5091282;28;20775;-74
2021/03/04 00:45:29;;;;;;;49.33;33.17;;;7.70;99.90;;;;;;5091698;28;20285;-75
2021/03/04 00:47:56;;;;;;;49.30;33.97;;;7.80;99.90;;;;;;5091569;28;20210;-74
2021/03/04 00:50:23;;;;;;;48.53;32.23;;;7.80;99.90;;;;;;5091538;28;20211;-75
2021/03/04 00:52:50;;;;;;;53.53;34.90;;;7.80;99.90;;;;;;5091644;28;20275;-74
2021/03/04 00:55:16;;;;;;;54.07;35.07;;;7.70;99.90;;;;;;5091516;28;20211;-75
2021/03/04 00:57:42;;;;;;;50.67;34.03;;;7.60;99.90;;;;;;5091651;28;20207;-75
2021/03/04 01:00:10;;;;;;;54.13;35.33;;;7.50;99.90;;;;;;5090944;28;20234;-75
2021/03/04 01:02:37;;;;;;;55.57;35.10;;;7.50;99.90;;;;;;5091175;28;20214;-74
2021/03/04 01:05:05;;;;;;;53.80;35.63;;;7.40;99.90;;;;;;5091130;28;20213;-74
2021/03/04 01:07:31;;;;;;;58.23;36.40;;;7.40;99.90;;;;;;5091351;28;20213;-75
2021/03/04 01:09:57;;;;;;;51.57;35.90;;;7.30;99.90;;;;;;5091121;28;20229;-74
2021/03/04 01:12:24;;;;;;;54.27;36.17;;;7.30;99.90;;;;;;5091017;28;20256;-75
2021/03/04 01:14:50;;;;;;;54.10;35.80;;;7.30;99.90;;;;;;5091243;28;20207;-75
2021/03/04 01:17:16;;;;;;;52.57;36.23;;;7.40;99.90;;;;;;5090984;28;20214;-75
2021/03/04 01:19:42;;;;;;;57.20;37.57;;;7.40;99.90;;;;;;5090597;28;20202;-75
2021/03/04 01:22:12;;;;;;;55.07;38.23;;;7.40;99.90;;;;;;5090745;28;20199;-75
2021/03/04 01:24:38;;;;;;;56.47;37.80;;;7.40;99.90;;;;;;5090731;28;20723;-75
2021/03/04 01:27:05;;;;;;;57.23;37.23;;;7.40;99.90;;;;;;5090697;28;20759;-75
2021/03/04 01:29:31;;;;;;;55.90;37.60;;;7.30;99.90;;;;;;5090921;28;20199;-75
2021/03/04 01:31:57;;;;;;;56.70;39.30;;;7.30;99.90;;;;;;5090831;28;20286;-75
2021/03/04 01:34:23;;;;;;;62.20;41.97;;;7.30;99.90;;;;;;5090518;28;20230;-75
2021/03/04 01:36:49;;;;;;;57.90;39.53;;;7.20;99.90;;;;;;5090674;28;20203;-75
2021/03/04 01:39:16;;;;;;;58.73;40.30;;;7.10;99.90;;;;;;5090561;28;20229;-75
2021/03/04 01:41:43;;;;;;;63.57;40.70;;;7.10;99.90;;;;;;5090301;28;20673;-75
2021/03/04 01:44:09;;;;;;;60.50;41.50;;;7.10;99.90;;;;;;5090331;28;20230;-75
2021/03/04 01:46:35;;;;;;;62.03;42.80;;;7.10;99.90;;;;;;5090145;28;20210;-75
2021/03/04 01:49:02;;;;;;;64.33;41.27;;;7.10;99.90;;;;;;5090035;28;20206;-75
2021/03/04 01:51:28;;;;;;;69.80;43.93;;;7.00;99.90;;;;;;5089955;28;20211;-75
2021/03/04 01:53:54;;;;;;;64.07;43.33;;;7.00;99.90;;;;;;5090248;28;20271;-75
2021/03/04 01:56:21;;;;;;;60.90;43.20;;;7.00;99.90;;;;;;5090139;28;20954;-75
2021/03/04 01:58:48;;;;;;;63.00;43.37;;;6.90;99.90;;;;;;5089974;28;20689;-75
2021/03/04 02:01:14;;;;;;;62.10;43.60;;;6.90;99.90;;;;;;5089616;28;20685;-75
2021/03/04 02:03:40;;;;;;;63.20;44.20;;;6.90;99.90;;;;;;5090314;28;20233;-75
2021/03/04 02:06:07;;;;;;;66.67;43.33;;;6.90;99.90;;;;;;5089969;28;20264;-75
2021/03/04 02:08:39;;;;;;;69.17;46.27;;;6.80;99.90;;;;;;5090259;28;20246;-75
2021/03/04 02:11:10;;;;;;;68.70;45.40;;;6.80;99.90;;;;;;5090021;28;20199;-75
2021/03/04 02:13:43;;;;;;;64.43;44.67;;;6.80;99.90;;;;;;5089799;28;20315;-75
2021/03/04 02:16:14;;;;;;;71.63;46.40;;;6.80;99.90;;;;;;5089892;28;20195;-75
2021/03/04 02:18:44;;;;;;;72.47;46.37;;;6.70;99.90;;;;;;5089884;28;20198;-75
2021/03/04 02:21:33;;;;;;;67.70;46.47;;;6.60;99.90;;;;;;5089809;28;20206;-75
2021/03/04 02:24:31;;;;;;;70.30;46.50;;;6.60;99.90;;;;;;5089549;28;20207;-75
2021/03/04 02:27:03;;;;;;;67.73;45.87;;;6.60;99.90;;;;;;5090053;28;20199;-74
2021/03/04 02:29:32;;;;;;;69.53;47.20;;;6.70;99.90;;;;;;5089331;28;20191;-75
2021/03/04 02:32:01;;;;;;;65.47;46.13;;;6.70;99.90;;;;;;5089623;28;20203;-75
2021/03/04 02:34:28;;;;;;;60.17;43.67;;;6.70;99.90;;;;;;5089260;28;20276;-75
2021/03/04 02:36:56;;;;;;;67.47;45.47;;;6.80;99.90;;;;;;5089613;28;20218;-75
2021/03/04 02:39:24;;;;;;;66.33;45.63;;;6.80;99.90;;;;;;5089508;28;20206;-75
2021/03/04 02:41:53;;;;;;;67.93;47.37;;;6.90;99.90;;;;;;5089513;28;20210;-74
2021/03/04 02:44:23;;;;;;;67.80;47.03;;;6.80;99.90;;;;;;5089061;28;20245;-75
2021/03/04 02:46:50;;;;;;;66.87;47.37;;;6.80;99.90;;;;;;5089530;28;20206;-75
2021/03/04 02:49:18;;;;;;;74.13;48.07;;;6.70;99.90;;;;;;5088789;28;20540;-75
2021/03/04 02:51:45;;;;;;;68.00;47.83;;;6.80;99.90;;;;;;5089129;28;20203;-75
2021/03/04 02:54:12;;;;;;;65.80;47.10;;;6.70;99.90;;;;;;5089036;28;20238;-75
2021/03/04 02:56:42;;;;;;;71.87;48.50;;;6.70;99.90;;;;;;5089074;28;20271;-75
2021/03/04 02:59:09;;;;;;;77.03;50.07;;;6.70;99.90;;;;;;5089048;28;20203;-75
2021/03/04 03:01:38;;;;;;;77.03;50.07;;;6.70;99.90;;;;;;5088720;28;20242;-74
2021/03/04 03:04:05;;;;;;;68.37;48.67;;;6.60;99.90;;;;;;5088555;28;20692;-75
2021/03/04 03:06:33;;;;;;;74.17;49.60;;;6.70;99.90;;;;;;5089109;28;20202;-75
2021/03/04 03:09:00;;;;;;;74.30;51.57;;;6.70;99.90;;;;;;5089003;28;20211;-75
2021/03/04 03:11:26;;;;;;;67.70;47.03;;;6.80;99.90;;;;;;5088780;28;20207;-75
2021/03/04 03:13:54;;;;;;;74.17;47.23;;;6.70;99.90;;;;;;5088555;28;20237;-75
2021/03/04 03:16:21;;;;;;;69.50;45.77;;;6.60;99.90;;;;;;5088760;28;20199;-75
2021/03/04 03:18:48;;;;;;;64.23;44.27;;;6.30;99.90;;;;;;5088787;28;20199;-75
2021/03/04 03:21:14;;;;;;;62.57;43.67;;;6.30;99.90;;;;;;5088749;28;20206;-75
2021/03/04 03:23:40;;;;;;;68.57;44.47;;;6.10;99.90;;;;;;5088606;28;20391;-74
2021/03/04 03:26:07;;;;;;;63.80;42.20;;;6.10;99.90;;;;;;5088719;28;20207;-75
2021/03/04 03:28:33;;;;;;;63.57;41.37;;;6.20;99.90;;;;;;5088887;28;20207;-75
2021/03/04 03:31:00;;;;;;;63.43;41.23;;;6.10;99.90;;;;;;5088854;28;20218;-75
2021/03/04 03:33:28;;;;;;;60.30;41.63;;;6.10;99.90;;;;;;5088308;28;20235;-75
2021/03/04 03:35:56;;;;;;;63.37;39.80;;;6.00;99.90;;;;;;5088802;28;20211;-75
2021/03/04 03:38:23;;;;;;;60.07;39.87;;;5.90;99.90;;;;;;5088320;28;20210;-75
2021/03/04 03:40:52;;;;;;;59.67;38.77;;;5.90;99.90;;;;;;5088169;28;20624;-75
2021/03/04 03:43:20;;;;;;;60.97;40.63;;;5.90;99.90;;;;;;5088158;28;20222;-75
2021/03/04 03:45:48;;;;;;;60.83;39.67;;;5.80;99.90;;;;;;5088301;28;20217;-75
2021/03/04 03:48:15;;;;;;;58.90;39.10;;;5.80;99.90;;;;;;5088146;28;20677;-75
2021/03/04 03:50:43;;;;;;;60.77;39.40;;;5.70;99.90;;;;;;5088558;28;20209;-75
2021/03/04 03:53:12;;;;;;;60.03;39.40;;;5.60;99.90;;;;;;5088253;28;20227;-75
2021/03/04 03:55:39;;;;;;;58.97;38.97;;;5.60;99.90;;;;;;5088617;28;20229;-75
2021/03/04 03:58:06;;;;;;;63.80;39.20;;;5.60;99.90;;;;;;5088356;28;21073;-75
2021/03/04 04:00:33;;;;;;;56.97;37.90;;;5.50;99.90;;;;;;5087936;28;20249;-74
2021/03/04 04:03:01;;;;;;;61.00;37.10;;;5.60;99.90;;;;;;5088083;28;20206;-75
2021/03/04 04:05:28;;;;;;;58.13;37.27;;;5.40;99.90;;;;;;5088188;28;20207;-75
2021/03/04 04:07:55;;;;;;;59.80;38.07;;;5.40;99.90;;;;;;5088189;28;20216;-74
2021/03/04 04:10:24;;;;;;;61.57;38.17;;;5.40;99.90;;;;;;5088255;28;20253;-75
2021/03/04 04:12:51;;;;;;;59.80;36.87;;;5.30;99.90;;;;;;5088050;28;20305;-74
2021/03/04 04:15:18;;;;;;;62.20;38.03;;;5.30;99.90;;;;;;5089299;28;20206;-75
2021/03/04 04:17:45;;;;;;;62.50;37.40;;;5.30;99.90;;;;;;5091868;28;20591;-75
2021/03/04 04:20:12;;;;;;;60.10;37.70;;;5.20;99.90;;;;;;5091580;28;20207;-75
2021/03/04 04:22:38;;;;;;;63.40;36.67;;;5.20;99.90;;;;;;5092022;28;20203;-75
2021/03/04 04:25:05;;;;;;;62.50;37.23;;;5.30;99.90;;;;;;5092214;28;20202;-74
2021/03/04 04:27:32;;;;;;;54.67;35.17;;;5.40;99.90;;;;;;5091438;28;20723;-75
2021/03/04 04:29:59;;;;;;;54.17;33.10;;;5.50;99.90;;;;;;5092043;28;20206;-75
2021/03/04 04:32:25;;;;;;;55.63;32.93;;;5.70;99.90;;;;;;5091996;28;20217;-75
2021/03/04 04:34:51;;;;;;;50.03;31.77;;;5.80;99.90;;;;;;5091661;28;20227;-75
2021/03/04 04:37:17;;;;;;;53.93;31.07;;;5.80;99.90;;;;;;5091857;28;20240;-74
2021/03/04 04:39:43;;;;;;;50.53;30.17;;;5.80;99.90;;;;;;5091816;28;20203;-75
2021/03/04 04:42:10;;;;;;;48.23;29.60;;;5.80;99.90;;;;;;5092023;28;20347;-75
2021/03/04 04:44:37;;;;;;;50.60;30.00;;;5.80;99.90;;;;;;5091783;28;20231;-75
2021/03/04 04:47:03;;;;;;;46.33;28.73;;;5.70;99.90;;;;;;5091746;28;20203;-74
2021/03/04 04:49:29;;;;;;;54.57;30.20;;;5.70;99.90;;;;;;5091586;28;20203;-74
2021/03/04 04:51:56;;;;;;;50.00;28.27;;;5.60;99.90;;;;;;5091577;28;20256;-74
2021/03/04 04:54:22;;;;;;;50.37;29.40;;;5.40;99.90;;;;;;5091408;28;20272;-75
2021/03/04 04:56:48;;;;;;;52.17;29.33;;;5.30;99.90;;;;;;5091457;28;20211;-74
2021/03/04 04:59:14;;;;;;;51.40;28.53;;;5.20;99.90;;;;;;5091153;28;20206;-74
2021/03/04 05:01:41;;;;;;;48.20;28.07;;;5.20;99.90;;;;;;5091472;28;20202;-74
2021/03/04 05:04:07;;;;;;;43.93;27.10;;;5.20;99.90;;;;;;5091003;28;20723;-74
2021/03/04 05:06:33;;;;;;;48.33;27.43;;;5.40;99.90;;;;;;5091255;28;20256;-75
2021/03/04 05:09:00;;;;;;;47.87;27.87;;;5.30;99.90;;;;;;5091423;28;20199;-74
2021/03/04 05:11:26;;;;;;;46.93;28.30;;;5.20;99.90;;;;;;5091068;28;20215;-74
2021/03/04 05:13:52;;;;;;;46.40;28.27;;;5.10;99.90;;;;;;5090735;28;20758;-75
2021/03/04 05:16:18;;;;;;;47.60;27.20;;;5.00;99.90;;;;;;5090817;28;20210;-75
2021/03/04 05:18:45;;;;;;;46.70;25.80;;;4.90;99.90;;;;;;5090998;28;20207;-74
2021/03/04 05:21:11;;;;;;;44.57;26.30;;;5.00;99.90;;;;;;5091217;28;20203;-74
2021/03/04 05:23:37;;;;;;;46.83;26.20;;;5.00;99.90;;;;;;5091022;28;20260;-74
2021/03/04 05:26:03;;;;;;;46.90;28.07;;;5.20;99.90;;;;;;5090353;28;20210;-74
2021/03/04 05:28:30;;;;;;;50.17;29.57;;;5.30;99.90;;;;;;5090134;28;20213;-74
2021/03/04 05:30:56;;;;;;;47.30;28.53;;;5.10;99.90;;;;;;5090824;28;20210;-74
2021/03/04 05:33:22;;;;;;;53.17;31.07;;;5.10;99.90;;;;;;5090471;28;20227;-75
2021/03/04 05:35:49;;;;;;;53.83;29.97;;;5.10;99.90;;;;;;5090903;28;20290;-75
2021/03/04 05:38:15;;;;;;;51.73;30.20;;;5.10;99.90;;;;;;5090519;28;20214;-74
2021/03/04 05:40:42;;;;;;;53.33;30.57;;;5.10;99.90;;;;;;5090367;28;20692;-75
2021/03/04 05:43:10;;;;;;;56.43;31.77;;;5.00;99.90;;;;;;5090529;28;20221;-74
2021/03/04 05:45:38;;;;;;;54.83;30.93;;;5.10;99.90;;;;;;5089905;28;20700;-74
2021/03/04 05:48:07;;;;;;;55.20;29.57;;;5.00;99.90;;;;;;5090398;28;20214;-74
2021/03/04 05:50:36;;;;;;;51.97;29.07;;;5.00;99.90;;;;;;5090282;28;20207;-74
2021/03/04 05:53:05;;;;;;;50.90;29.37;;;5.00;99.90;;;;;;5090292;28;20758;-75
2021/03/04 05:55:31;;;;;;;50.00;29.33;;;5.00;99.90;;;;;;5090185;28;20206;-74
2021/03/04 05:57:58;;;;;;;45.40;26.80;;;5.00;99.90;;;;;;5090541;28;20221;-74
2021/03/04 06:00:24;;;;;;;51.97;27.37;;;4.90;99.90;;;;;;5089938;28;20238;-74
2021/03/04 06:02:51;;;;;;;49.10;27.40;;;4.90;99.90;;;;;;5090034;28;20787;-74
2021/03/04 06:05:17;;;;;;;47.87;26.80;;;4.90;99.90;;;;;;5090122;28;20210;-74
2021/03/04 06:07:44;;;;;;;46.83;25.77;;;5.00;99.90;;;;;;5090241;28;20207;-74
2021/03/04 06:10:14;;;;;;;43.17;25.63;;;5.00;99.90;;;;;;5090081;28;20206;-74
2021/03/04 06:12:41;;;;;;;44.90;25.93;;;5.00;99.90;;;;;;5089565;28;20826;-75
2021/03/04 06:15:10;;;;;;;46.40;25.80;;;5.00;99.90;;;;;;5089762;28;20247;-74
2021/03/04 06:17:36;;;;;;;41.50;25.07;;;5.00;99.90;;;;;;5089456;28;20705;-74
2021/03/04 06:20:06;;;;;;;46.50;26.23;;;5.10;99.90;;;;;;5089599;28;20218;-74
2021/03/04 06:22:33;;;;;;;40.23;24.23;;;5.20;99.90;;;;;;5089508;28;20602;-75
2021/03/04 06:25:01;;;;;;;44.40;24.70;;;5.30;99.90;;;;;;5089306;28;20211;-75
2021/03/04 06:27:31;;;;;;;44.60;24.50;;;5.40;99.90;;;;;;5089387;28;20574;-74
2021/03/04 06:29:59;;;;;;;42.97;23.60;;;5.30;99.90;;;;;;5089404;28;20232;-74
2021/03/04 06:32:26;;;;;;;44.00;25.50;;;5.30;99.90;;;;;;5089482;28;20203;-75
2021/03/04 06:35:07;;;;;;;40.50;24.10;;;5.30;99.90;;;;;;5088990;28;20708;-75
2021/03/04 06:37:35;;;;;;;36.23;23.63;;;5.30;99.90;;;;;;5088890;28;20195;-75
2021/03/04 06:40:01;;;;;;;42.33;24.20;;;5.30;99.90;;;;;;5089278;28;20210;-74
2021/03/04 06:42:39;;;;;;;40.53;23.83;;;5.30;99.90;;;;;;5089019;28;20203;-74
2021/03/04 06:45:06;;;;;;;37.67;22.60;;;5.40;99.90;;;;;;5089478;28;20310;-75
2021/03/04 06:47:33;;;;;;;36.77;22.90;;;5.40;99.90;;;;;;5089197;28;20210;-74
2021/03/04 06:49:59;;;;;;;36.97;22.60;;;5.30;99.90;;;;;;5088893;28;20251;-74
2021/03/04 06:52:26;;;;;;;39.40;24.10;;;5.30;99.90;;;;;;5088829;28;20563;-75
2021/03/04 06:54:53;;;;;;;42.60;24.27;;;5.30;99.90;;;;;;5088720;28;20226;-74
2021/03/04 06:57:21;;;;;;;39.30;23.10;;;5.30;99.90;;;;;;5089258;28;20202;-74
2021/03/04 06:59:49;;;;;;;40.13;24.13;;;5.40;99.90;;;;;;5088968;28;20322;-74
2021/03/04 07:02:25;;;;;;;38.50;22.63;;;5.20;99.90;;;;;;5089078;28;20567;-74
2021/03/04 07:04:55;;;;;;;37.47;22.93;;;5.10;99.90;;;;;;5088891;28;20210;-75
2021/03/04 07:07:25;;;;;;;40.00;22.70;;;5.10;99.90;;;;;;5088661;28;20206;-74
2021/03/04 07:09:53;;;;;;;39.83;22.93;;;5.00;99.90;;;;;;5088960;28;20290;-74
2021/03/04 07:12:20;;;;;;;45.27;23.20;;;4.90;99.90;;;;;;5088793;28;20198;-74
2021/03/04 07:14:49;;;;;;;41.13;22.10;;;4.80;99.90;;;;;;5088970;28;20227;-74
2021/03/04 07:17:16;;;;;;;37.10;21.63;;;4.90;99.90;;;;;;5088779;28;20215;-74
2021/03/04 07:19:49;;;;;;;34.53;21.67;;;4.80;99.90;;;;;;5088598;28;20210;-74
2021/03/04 07:22:15;;;;;;;37.67;21.03;;;4.90;99.90;;;;;;5088813;28;20281;-75
2021/03/04 07:24:44;;;;;;;32.43;20.13;;;4.90;99.90;;;;;;5088596;28;20210;-74
2021/03/04 07:27:12;;;;;;;34.90;19.60;;;4.80;99.90;;;;;;5088556;28;20202;-74
2021/03/04 07:29:39;;;;;;;35.27;19.50;;;4.90;99.90;;;;;;5088371;28;20202;-74
2021/03/04 07:32:08;;;;;;;33.43;19.40;;;4.90;99.90;;;;;;5088771;28;20209;-74
2021/03/04 07:34:35;;;;;;;36.90;20.10;;;4.90;99.90;;;;;;5087968;28;20273;-74
2021/03/04 07:37:02;;;;;;;36.47;19.10;;;4.90;99.90;;;;;;5088429;28;20216;-74
2021/03/04 07:39:30;;;;;;;36.03;19.57;;;4.90;99.90;;;;;;5088366;28;20636;-75
2021/03/04 07:41:56;;;;;;;31.83;18.93;;;4.70;99.90;;;;;;5088145;28;20429;-74
2021/03/04 07:44:24;;;;;;;34.63;19.20;;;4.70;99.90;;;;;;5088263;28;20227;-74
2021/03/04 07:46:52;;;;;;;33.50;20.20;;;4.70;99.90;;;;;;5088405;28;20570;-75
2021/03/04 07:49:29;;;;;;;29.27;17.73;;;4.70;99.90;;;;;;5088204;28;20218;-74
2021/03/04 07:52:06;;;;;;;31.70;17.37;;;4.70;99.90;;;;;;5092322;28;20282;-74
2021/03/04 07:54:33;;;;;;;33.20;19.23;;;4.70;99.90;;;;;;5092394;28;20219;-74
2021/03/04 07:57:03;;;;;;;33.20;19.13;;;4.70;99.90;;;;;;5092621;28;20247;-74
2021/03/04 07:59:29;;;;;;;30.70;17.13;;;4.70;99.90;;;;;;5092299;28;20211;-74
2021/03/04 08:01:59;;;;;;;29.80;17.43;;;4.80;99.90;;;;;;5092399;28;20195;-74
2021/03/04 08:04:28;;;;;;;31.43;18.07;;;4.80;99.90;;;;;;5092077;28;20214;-74
2021/03/04 08:06:55;;;;;;;28.97;17.00;;;4.80;99.90;;;;;;5092659;28;20214;-74
2021/03/04 08:09:29;;;;;;;29.07;17.37;;;4.70;99.90;;;;;;5092461;28;20202;-74
2021/03/04 08:12:07;;;;;;;34.50;18.53;;;4.70;99.90;;;;;;5092441;28;20190;-74
2021/03/04 08:14:34;;;;;;;33.73;17.63;;;4.70;99.90;;;;;;5092157;28;20557;-74
2021/03/04 08:17:02;;;;;;;30.97;18.60;;;4.60;99.90;;;;;;5092336;28;20207;-74
2021/03/04 08:19:30;;;;;;;32.00;18.40;;;4.50;99.90;;;;;;5091533;28;20207;-74
2021/03/04 08:22:04;;;;;;;33.27;18.10;;;4.50;99.90;;;;;;5092189;28;20257;-74
2021/03/04 08:24:32;;;;;;;30.47;17.57;;;4.50;99.90;;;;;;5092013;28;20217;-74
2021/03/04 08:26:59;;;;;;;33.60;17.70;;;4.50;99.90;;;;;;5091972;28;20229;-74
2021/03/04 08:29:26;;;;;;;35.93;19.40;;;4.60;99.90;;;;;;5091962;28;20580;-74
2021/03/04 08:31:56;;;;;;;32.10;19.10;;;4.70;99.90;;;;;;5091761;28;20645;-74
2021/03/04 08:34:23;;;;;;;35.20;20.23;;;4.70;99.90;;;;;;5091538;28;20708;-75
2021/03/04 08:36:53;;;;;;;33.87;20.30;;;4.80;99.90;;;;;;5092007;28;20209;-74
2021/03/04 08:39:23;;;;;;;31.17;18.60;;;4.70;99.90;;;;;;5091957;28;20690;-74
2021/03/04 08:41:49;;;;;;;32.90;19.07;;;4.70;99.90;;;;;;5091898;28;20234;-74
2021/03/04 08:44:18;;;;;;;30.70;17.57;;;4.70;99.90;;;;;;5091776;28;20235;-74
2021/03/04 08:46:48;;;;;;;29.90;17.17;;;4.70;99.90;;;;;;5090878;28;20214;-74
2021/03/04 08:49:16;;;;;;;29.63;17.80;;;4.80;99.90;;;;;;5091686;28;20191;-75
2021/03/04 08:51:44;;;;;;;27.80;17.10;;;4.90;99.90;;;;;;5091023;28;20203;-75
2021/03/04 08:54:21;;;;;;;26.83;16.13;;;4.80;99.90;;;;;;5091618;28;20226;-74
2021/03/04 08:56:55;;;;;;;26.87;15.80;;;4.70;99.90;;;;;;5091693;28;20199;-74
2021/03/04 08:59:22;;;;;;;22.80;15.40;;;4.80;99.90;;;;;;5091061;28;20276;-74
2021/03/04 09:01:49;;;;;;;26.77;15.93;;;4.80;99.90;;;;;;5091022;28;20282;-74
2021/03/04 09:04:23;;;;;;;26.93;15.73;;;4.80;99.90;;;;;;5091308;28;20207;-74
2021/03/04 09:06:50;;;;;;;27.60;15.20;;;4.80;99.90;;;;;;5091304;28;20255;-74
2021/03/04 09:09:22;;;;;;;26.20;15.17;;;4.80;99.90;;;;;;5090950;28;20246;-74
2021/03/04 09:11:49;;;;;;;23.13;14.37;;;4.80;99.90;;;;;;5091132;28;20261;-76
2021/03/04 09:14:17;;;;;;;33.13;16.13;;;4.80;99.90;;;;;;5090624;28;20249;-75
2021/03/04 09:16:46;;;;;;;24.63;15.43;;;4.90;99.90;;;;;;5090704;28;20736;-76
2021/03/04 09:19:12;;;;;;;25.57;14.60;;;4.80;99.90;;;;;;5090715;28;20225;-76
2021/03/04 09:21:39;;;;;;;20.30;14.23;;;4.90;99.90;;;;;;5090540;28;20719;-75
2021/03/04 09:24:09;;;;;;;26.83;15.27;;;5.00;99.90;;;;;;5091169;28;20238;-76
2021/03/04 09:26:37;;;;;;;22.17;14.77;;;5.00;99.90;;;;;;5090705;28;20205;-76
2021/03/04 09:29:06;;;;;;;21.07;13.87;;;4.90;99.90;;;;;;5091183;28;20217;-76
2021/03/04 09:31:33;;;;;;;23.53;14.00;;;5.00;99.90;;;;;;5090167;28;20264;-76
2021/03/04 09:34:01;;;;;;;22.87;13.53;;;5.10;99.90;;;;;;5090319;28;20636;-76
2021/03/04 09:36:28;;;;;;;21.17;13.17;;;5.20;99.90;;;;;;5090338;28;20211;-76
2021/03/04 09:38:57;;;;;;;22.70;14.00;;;5.20;99.90;;;;;;5090518;28;20202;-75
2021/03/04 09:41:25;;;;;;;25.13;15.20;;;5.40;99.90;;;;;;5090733;28;20207;-76
2021/03/04 09:43:57;;;;;;;19.53;14.47;;;5.30;99.90;;;;;;5090397;28;20272;-75
2021/03/04 09:46:28;;;;;;;24.37;14.83;;;5.30;99.90;;;;;;5090375;28;20207;-75
2021/03/04 09:48:55;;;;;;;26.57;14.60;;;5.00;99.90;;;;;;5090243;28;20217;-75
2021/03/04 09:51:32;;;;;;;26.10;16.13;;;5.00;99.90;;;;;;5090293;28;20565;-77
2021/03/04 09:53:59;;;;;;;24.90;15.33;;;4.80;99.90;;;;;;5090644;28;20219;-75
2021/03/04 09:56:25;;;;;;;25.27;15.80;;;4.60;99.90;;;;;;5090431;28;20210;-75
2021/03/04 09:58:53;;;;;;;24.40;15.73;;;4.60;99.90;;;;;;5089938;28;20545;-75
2021/03/04 10:01:31;;;;;;;27.03;15.60;;;4.50;99.90;;;;;;5089981;28;20240;-75
2021/03/04 10:04:02;;;;;;;27.07;15.67;;;4.60;99.90;;;;;;5089719;28;20275;-75
2021/03/04 10:06:33;;;;;;;24.13;14.67;;;4.60;99.90;;;;;;5089977;28;20195;-76
2021/03/04 10:09:00;;;;;;;28.23;15.97;;;4.60;99.90;;;;;;5090155;28;20230;-75
2021/03/04 10:11:31;;;;;;;27.80;16.20;;;4.50;99.90;;;;;;5089829;28;20263;-75
2021/03/04 10:14:08;;;;;;;27.33;16.30;;;4.50;99.90;;;;;;5089308;28;20226;-75
2021/03/04 10:16:35;;;;;;;31.83;16.73;;;4.60;99.90;;;;;;5089369;28;20218;-75
2021/03/04 10:19:02;;;;;;;29.03;16.57;;;4.50;99.90;;;;;;5089881;28;20550;-75
2021/03/04 10:21:28;;;;;;;26.50;17.03;;;4.50;99.90;;;;;;5089650;28;20681;-75
2021/03/04 10:23:55;;;;;;;24.27;15.13;;;4.50;99.90;;;;;;5089939;28;20681;-75
2021/03/04 10:26:21;;;;;;;24.37;15.60;;;4.60;99.90;;;;;;5089665;28;20500;-75
2021/03/04 10:28:48;;;;;;;24.67;15.53;;;4.70;99.90;;;;;;5089454;28;20202;-75
2021/03/04 10:31:15;;;;;;;23.37;14.70;;;4.60;99.90;;;;;;5089406;28;20672;-75
2021/03/04 10:33:42;;;;;;;22.00;14.57;;;4.70;99.90;;;;;;5089461;28;20688;-75
2021/03/04 10:36:09;;;;;;;21.80;14.47;;;4.70;99.90;;;;;;5089509;28;20206;-75
2021/03/04 10:38:35;;;;;;;20.33;13.10;;;4.80;99.90;;;;;;5089673;28;20237;-75
2021/03/04 10:41:01;;;;;;;20.53;13.70;;;4.90;99.90;;;;;;5089445;28;20568;-75
2021/03/04 10:43:28;;;;;;;19.57;13.33;;;4.90;99.90;;;;;;5089522;28;20313;-75
2021/03/04 10:45:54;;;;;;;21.53;13.27;;;4.90;99.90;;;;;;5089246;28;20671;-75
2021/03/04 10:48:22;;;;;;;20.63;13.17;;;4.90;99.90;;;;;;5089482;28;20207;-75
2021/03/04 10:50:48;;;;;;;21.43;13.33;;;5.10;99.90;;;;;;5089135;28;20207;-75
2021/03/04 10:53:15;;;;;;;27.20;13.13;;;5.20;99.90;;;;;;5089223;28;20207;-75
2021/03/04 10:55:41;;;;;;;19.17;12.53;;;5.30;99.90;;;;;;5089229;28;20209;-75
2021/03/04 10:58:08;;;;;;;17.47;11.60;;;5.30;99.90;;;;;;5089209;28;20209;-75
2021/03/04 11:00:34;;;;;;;18.57;12.50;;;5.30;99.90;;;;;;5088803;28;20288;-76
2021/03/04 11:03:01;;;;;;;18.27;11.90;;;5.30;99.90;;;;;;5089231;28;20289;-76
2021/03/04 11:05:28;;;;;;;16.80;11.53;;;5.30;99.90;;;;;;5089155;28;20211;-76
2021/03/04 11:07:55;;;;;;;17.77;10.67;;;5.20;99.90;;;;;;5089009;28;20202;-76
2021/03/04 11:10:21;;;;;;;16.13;10.93;;;5.30;99.90;;;;;;5088711;28;20734;-75
2021/03/04 11:12:47;;;;;;;14.30;10.30;;;5.40;99.90;;;;;;5088587;28;20568;-75
2021/03/04 11:15:15;;;;;;;28.47;10.93;;;5.40;99.90;;;;;;5088581;28;20227;-75
2021/03/04 11:17:41;;;;;;;15.33;10.13;;;5.50;99.90;;;;;;5088932;28;20199;-75
2021/03/04 11:20:09;;;;;;;16.13;9.90;;;5.40;99.90;;;;;;5088903;28;20303;-76
2021/03/04 11:22:36;;;;;;;12.50;9.27;;;5.40;99.90;;;;;;5088866;28;20218;-75
2021/03/04 11:25:03;;;;;;;12.47;9.47;;;5.40;99.90;;;;;;5088882;28;20218;-76
2021/03/04 11:27:29;;;;;;;14.67;9.63;;;5.30;99.90;;;;;;5088462;28;20669;-75
2021/03/04 11:29:58;;;;;;;14.70;10.03;;;5.20;99.90;;;;;;5088725;28;20206;-75
2021/03/04 11:32:24;;;;;;;13.23;9.43;;;5.20;99.90;;;;;;5088795;28;20235;-76
2021/03/04 11:34:51;;;;;;;13.00;9.60;;;5.20;99.90;;;;;;5088338;28;20253;-75
2021/03/04 11:37:17;;;;;;;13.67;9.40;;;5.20;99.90;;;;;;5088812;28;20234;-75
2021/03/04 11:39:44;;;;;;;13.90;8.80;;;5.10;99.90;;;;;;5088535;28;20209;-75
2021/03/04 11:42:10;;;;;;;11.63;9.13;;;5.10;99.90;;;;;;5088411;28;20569;-75
2021/03/04 11:44:37;;;;;;;12.47;8.40;;;5.10;99.90;;;;;;5088352;28;20670;-76
2021/03/04 11:47:03;;;;;;;11.70;9.03;;;5.20;99.90;;;;;;5088540;28;20214;-75
2021/03/04 11:49:29;;;;;;;11.87;9.30;;;5.20;99.90;;;;;;5088415;28;20203;-75
2021/03/04 11:51:55;;;;;;;14.20;8.10;;;5.20;99.90;;;;;;5088184;28;20203;-75
2021/03/04 11:54:21;;;;;;;9.80;7.70;;;5.20;99.90;;;;;;5088548;28;20227;-76
2021/03/04 11:56:49;;;;;;;9.23;7.37;;;5.20;99.90;;;;;;5088357;28;20211;-75
2021/03/04 11:59:15;;;;;;;10.50;7.90;;;5.20;99.90;;;;;;5088518;28;20213;-75
2021/03/04 12:01:44;;;;;;;10.30;8.57;;;5.30;99.90;;;;;;5088029;28;20230;-76
2021/03/04 12:04:11;;;;;;;9.93;7.47;;;5.30;99.90;;;;;;5088365;28;20207;-76
2021/03/04 12:06:37;;;;;;;9.67;7.60;;;5.30;99.90;;;;;;5088156;28;20668;-73
2021/03/04 12:09:04;;;;;;;8.13;7.13;;;5.40;99.90;;;;;;5088480;28;20203;-73
2021/03/04 12:11:31;;;;;;;9.47;7.63;;;5.40;99.90;;;;;;5088197;28;20806;-73
2021/03/04 12:13:58;;;;;;;9.33;7.13;;;5.40;99.90;;;;;;5088258;28;20607;-73
2021/03/04 12:16:25;;;;;;;8.50;7.57;;;5.40;99.90;;;;;;5088086;28;20292;-73
2021/03/04 12:18:51;;;;;;;8.27;6.93;;;5.50;99.90;;;;;;5088085;28;20287;-75
2021/03/04 12:21:18;;;;;;;9.30;7.03;;;5.40;99.90;;;;;;5088415;28;20216;-75
2021/03/04 12:23:44;;;;;;;8.67;7.10;;;5.30;99.90;;;;;;5088048;28;20263;-76
2021/03/04 12:26:11;;;;;;;8.33;7.40;;;5.10;99.90;;;;;;5087587;28;20207;-75
2021/03/04 12:28:37;;;;;;;8.93;7.03;;;4.90;99.90;;;;;;5087937;28;20214;-75
2021/03/04 12:31:05;;;;;;;9.70;7.50;;;4.80;99.90;;;;;;5088064;28;21011;-75
2021/03/04 12:33:31;;;;;;;7.67;6.87;;;4.80;99.90;;;;;;5087686;28;20692;-75
2021/03/04 12:35:57;;;;;;;7.57;6.77;;;5.00;99.90;;;;;;5088543;28;20617;-75
2021/03/04 12:38:23;;;;;;;7.30;6.53;;;5.10;99.90;;;;;;5092008;28;20214;-76
2021/03/04 12:40:49;;;;;;;7.67;6.90;;;5.10;99.90;;;;;;5091346;28;20658;-76